Time;durP1;ratioP1;P1;durP2;ratioP2;P2;SDS_P1;SDS_P2;PMS_P1;PMS_P2;Temp;Humidity;BMP_temperature;BMP_pressure;BME280_temperature;BME280_humidity;BME280_pressure;Samples;Min_cycle;Max_cycle;Signal;HPM_P1;HPM_P2
2023/08/25 00:00:38;;;;;;;7.28;5.00;;;;;;;11.77;73.13;99687.19;5096443;28;20032;-51
2023/08/25 00:03:04;;;;;;;5.53;4.32;;;;;;;11.74;72.87;99698.19;5096464;28;20039;-55
2023/08/25 00:05:30;;;;;;;9.63;5.00;;;;;;;11.68;72.80;99688.00;5078193;28;20039;-57
2023/08/25 00:07:55;;;;;;;6.25;4.82;;;;;;;11.73;72.99;99691.13;5096144;28;20032;-58
2023/08/25 00:10:22;;;;;;;7.88;4.70;;;;;;;11.72;72.99;99692.13;5095049;28;20062;-56
2023/08/25 00:12:49;;;;;;;7.80;5.03;;;;;;;11.73;72.88;99695.63;5082358;28;20115;-54
2023/08/25 00:15:14;;;;;;;7.03;5.40;;;;;;;11.74;72.98;99697.34;5096206;28;20438;-59
2023/08/25 00:17:40;;;;;;;11.45;5.93;;;;;;;11.73;73.22;99684.91;5095754;28;20028;-57
2023/08/25 00:20:09;;;;;;;13.40;6.97;;;;;;;11.71;73.24;99686.88;5096058;28;20071;-54
2023/08/25 00:22:35;;;;;;;9.82;6.57;;;;;;;11.67;73.10;99691.66;5095826;28;20036;-54
2023/08/25 00:25:00;;;;;;;8.98;6.20;;;;;;;11.60;73.60;99679.78;5095777;28;20430;-55
2023/08/25 00:27:26;;;;;;;13.90;7.53;;;;;;;11.61;73.72;99687.69;5095180;28;20034;-57
2023/08/25 00:29:53;;;;;;;12.40;7.28;;;;;;;11.59;73.46;99689.66;5095415;28;20089;-55
2023/08/25 00:32:19;;;;;;;15.77;8.43;;;;;;;11.46;74.16;99672.94;5095914;28;20085;-57
2023/08/25 00:34:45;;;;;;;16.17;7.72;;;;;;;11.55;74.20;99685.53;5096171;28;20492;-55
2023/08/25 00:37:10;;;;;;;15.20;7.90;;;;;;;11.50;74.28;99677.03;5095960;28;20024;-56
2023/08/25 00:39:36;;;;;;;14.82;8.63;;;;;;;11.51;74.42;99691.31;5095877;28;20035;-55
2023/08/25 00:42:01;;;;;;;13.65;8.25;;;;;;;11.40;74.31;99676.16;5095036;28;20032;-56
2023/08/25 00:44:27;;;;;;;13.68;8.38;;;;;;;11.43;74.68;99682.09;5095368;28;20039;-58
2023/08/25 00:46:53;;;;;;;12.18;8.25;;;;;;;11.36;74.63;99674.72;5095335;28;20158;-56
2023/08/25 00:49:20;;;;;;;16.77;9.20;;;;;;;11.41;74.84;99692.09;5095551;28;20028;-56
2023/08/25 00:51:46;;;;;;;12.98;8.10;;;;;;;11.39;75.19;99688.69;5095535;28;20112;-54
2023/08/25 00:54:12;;;;;;;14.60;8.05;;;;;;;11.37;75.03;99690.66;5095818;28;20085;-55
2023/08/25 00:56:38;;;;;;;12.18;8.02;;;;;;;11.32;75.20;99701.78;5077930;28;20526;-58
2023/08/25 00:59:04;;;;;;;12.35;7.53;;;;;;;11.23;75.34;99686.50;5095309;28;20024;-56
2023/08/25 01:01:30;;;;;;;12.65;7.47;;;;;;;11.27;75.67;99697.81;5094762;28;20032;-56
2023/08/25 01:03:56;;;;;;;12.52;7.35;;;;;;;11.27;75.69;99695.97;5095270;28;20454;-56
2023/08/25 01:06:22;;;;;;;14.23;7.15;;;;;;;11.26;75.33;99696.94;5095129;28;20024;-52
2023/08/25 01:08:49;;;;;;;13.65;7.47;;;;;;;11.25;75.85;99703.28;5095059;28;20036;-57
2023/08/25 01:11:29;;;;;;;16.48;7.05;;;;;;;11.30;75.87;99701.06;5079701;28;20377;-55
2023/08/25 01:14:01;;;;;;;13.13;6.90;;;;;;;11.26;75.69;99707.66;5094817;28;20422;-57
2023/08/25 01:16:35;;;;;;;9.50;6.20;;;;;;;11.27;75.66;99706.69;5094352;28;20115;-55
2023/08/25 01:19:04;;;;;;;11.27;6.35;;;;;;;11.21;75.86;99704.53;5094784;28;20343;-57
2023/08/25 01:21:36;;;;;;;13.80;6.18;;;;;;;11.20;76.36;99706.34;5095183;28;20170;-56
2023/08/25 01:24:16;;;;;;;9.95;6.65;;;;;;;11.22;76.46;99711.59;5094878;28;20111;-58
2023/08/25 01:26:42;;;;;;;11.15;6.40;;;;;;;11.11;76.47;99707.16;5094760;28;20032;-56
2023/08/25 01:29:07;;;;;;;11.45;6.68;;;;;;;11.14;76.59;99711.41;5076851;28;20036;-55
2023/08/25 01:31:33;;;;;;;10.10;6.55;;;;;;;10.95;76.72;99670.09;5094468;28;20358;-55
2023/08/25 01:34:01;;;;;;;11.18;6.78;;;;;;;11.15;76.66;99707.75;5094365;28;20038;-54
2023/08/25 01:36:44;;;;;;;12.75;6.25;;;;;;;11.22;76.70;99708.09;5094641;28;20110;-58
2023/08/25 01:39:15;;;;;;;12.82;6.53;;;;;;;11.19;76.67;99699.28;5093666;28;20032;-55
2023/08/25 01:41:55;;;;;;;11.32;5.88;;;;;;;11.20;77.12;99711.72;5094589;28;20469;-57
2023/08/25 01:44:23;;;;;;;10.18;5.72;;;;;;;11.13;76.71;99702.50;5093696;28;20579;-54
2023/08/25 01:46:54;;;;;;;9.43;5.80;;;;;;;11.15;76.85;99718.47;5094771;28;20032;-58
2023/08/25 01:49:21;;;;;;;9.77;5.90;;;;;;;11.12;76.42;99702.66;5093843;28;20061;-58
2023/08/25 01:51:47;;;;;;;8.35;5.53;;;;;;;11.11;76.82;99709.00;5094371;28;20027;-54
2023/08/25 01:54:13;;;;;;;13.10;5.65;;;;;;;11.08;76.72;99707.41;5094348;28;20035;-53
2023/08/25 01:56:39;;;;;;;8.55;5.90;;;;;;;11.09;76.86;99708.25;5094202;28;20188;-54
2023/08/25 01:59:04;;;;;;;10.45;6.20;;;;;;;11.06;76.99;99704.03;5093667;28;20028;-55
2023/08/25 02:01:30;;;;;;;9.95;5.38;;;;;;;11.01;76.92;99704.41;5094135;28;20350;-56
2023/08/25 02:03:57;;;;;;;9.35;6.15;;;;;;;10.98;77.00;99701.97;5091202;28;20051;-54
2023/08/25 02:06:22;;;;;;;11.32;5.63;;;;;;;11.03;77.24;99713.16;5094099;28;20028;-58
2023/08/25 02:08:48;;;;;;;7.50;5.32;;;;;;;10.81;77.13;99670.41;5094190;28;20035;-58
2023/08/25 02:11:13;;;;;;;11.90;5.40;;;;;;;11.00;77.29;99701.88;5093987;28;20055;-56
2023/08/25 02:13:39;;;;;;;6.78;5.05;;;;;;;10.98;77.59;99707.34;5094059;28;20036;-58
2023/08/25 02:16:06;;;;;;;9.40;5.95;;;;;;;10.94;77.35;99705.03;5093536;28;20043;-56
2023/08/25 02:18:31;;;;;;;8.63;5.30;;;;;;;10.95;77.42;99707.59;5093609;28;20069;-57
2023/08/25 02:20:57;;;;;;;9.65;5.20;;;;;;;10.96;77.33;99706.63;5093013;28;20043;-55
2023/08/25 02:23:23;;;;;;;8.20;5.03;;;;;;;10.96;77.22;99714.66;5093250;28;20036;-59
2023/08/25 02:25:48;;;;;;;11.68;5.30;;;;;;;10.96;77.73;99711.13;5093989;28;20028;-57
2023/08/25 02:28:14;;;;;;;10.57;5.20;;;;;;;10.95;77.63;99712.09;5093732;28;20034;-58
2023/08/25 02:30:39;;;;;;;7.45;5.38;;;;;;;10.99;77.63;99716.25;5092238;28;20036;-59
2023/08/25 02:33:06;;;;;;;10.63;5.75;;;;;;;11.01;77.66;99711.59;5093509;28;20381;-56
2023/08/25 02:35:32;;;;;;;7.50;5.32;;;;;;;11.06;77.95;99720.94;5075881;28;20410;-59
2023/08/25 02:38:04;;;;;;;12.52;5.63;;;;;;;11.14;78.08;99719.44;5093423;28;20055;-57
2023/08/25 02:40:30;;;;;;;11.30;5.10;;;;;;;11.13;77.78;99721.25;5093262;28;20070;-61
2023/08/25 02:42:58;;;;;;;7.43;5.55;;;;;;;11.18;77.20;99716.34;5075484;28;20401;-58
2023/08/25 02:45:24;;;;;;;8.05;5.35;;;;;;;11.04;76.96;99682.69;5092747;28;20093;-59
2023/08/25 02:47:51;;;;;;;11.68;5.25;;;;;;;11.30;76.91;99717.13;5093484;28;20028;-58
2023/08/25 02:50:17;;;;;;;10.65;5.10;;;;;;;11.38;76.51;99718.34;5093193;28;20020;-60
2023/08/25 02:52:42;;;;;;;9.85;5.45;;;;;;;11.40;76.38;99711.00;5093211;28;20043;-59
2023/08/25 02:55:08;;;;;;;10.68;5.40;;;;;;;11.54;76.37;99713.31;5093204;28;20035;-60
2023/08/25 02:57:34;;;;;;;8.75;5.22;;;;;;;11.60;76.22;99712.81;5093132;28;20028;-57
2023/08/25 02:59:59;;;;;;;12.05;5.70;;;;;;;11.73;76.01;99719.78;5092593;28;20157;-59
2023/08/25 03:02:25;;;;;;;11.70;5.50;;;;;;;11.76;75.48;99715.00;5093106;28;20051;-58
2023/08/25 03:04:50;;;;;;;11.38;5.15;;;;;;;11.67;74.96;99675.56;5093117;28;20120;-59
2023/08/25 03:07:16;;;;;;;12.35;4.80;;;;;;;11.99;74.63;99727.38;5092566;28;20036;-60
2023/08/25 03:09:41;;;;;;;8.88;5.32;;;;;;;12.08;74.38;99715.88;5092324;28;20028;-59
2023/08/25 03:12:08;;;;;;;8.80;4.97;;;;;;;12.17;73.82;99716.84;5092841;28;20052;-60
2023/08/25 03:14:33;;;;;;;10.65;5.10;;;;;;;12.26;73.87;99717.88;5092393;28;20028;-61
2023/08/25 03:16:58;;;;;;;15.15;5.63;;;;;;;12.40;73.46;99716.63;5075240;28;20355;-59
2023/08/25 03:19:24;;;;;;;12.98;5.65;;;;;;;12.53;72.68;99722.59;5092998;28;20028;-61
2023/08/25 03:21:49;;;;;;;13.80;5.45;;;;;;;12.63;72.07;99730.69;5092991;28;20423;-60
2023/08/25 03:24:15;;;;;;;9.77;5.20;;;;;;;12.76;71.66;99727.72;5075370;28;20049;-61
2023/08/25 03:26:41;;;;;;;9.68;5.40;;;;;;;12.86;71.36;99736.63;5092831;28;20028;-60
2023/08/25 03:29:06;;;;;;;14.13;5.45;;;;;;;12.92;71.22;99721.78;5092303;28;20089;-58
2023/08/25 03:31:32;;;;;;;12.80;5.47;;;;;;;13.11;71.11;99744.25;5075013;28;20044;-61
2023/08/25 03:33:57;;;;;;;10.60;5.45;;;;;;;13.26;70.13;99737.47;5058219;28;20032;-59
2023/08/25 03:36:23;;;;;;;11.57;5.60;;;;;;;13.45;69.46;99736.63;5092479;28;20435;-60
2023/08/25 03:38:48;;;;;;;12.32;5.15;;;;;;;13.97;68.28;99729.06;5092566;28;20033;-58
2023/08/25 03:41:14;;;;;;;11.25;5.18;;;;;;;15.06;64.47;99738.19;5092889;28;20028;-60
2023/08/25 03:43:39;;;;;;;11.27;5.25;;;;;;;16.31;60.36;99729.88;5092597;28;20430;-59
2023/08/25 03:46:05;;;;;;;10.20;5.25;;;;;;;17.53;56.34;99731.16;5092522;28;20024;-60
2023/08/25 03:48:30;;;;;;;12.25;4.75;;;;;;;18.67;52.79;99730.09;5091764;28;20078;-61
2023/08/25 03:50:56;;;;;;;17.35;5.35;;;;;;;19.78;49.80;99743.25;5092420;28;20039;-60
2023/08/25 03:53:22;;;;;;;10.65;4.85;;;;;;;20.73;47.38;99722.72;5092765;28;20028;-60
2023/08/25 03:55:47;;;;;;;11.02;5.40;;;;;;;21.74;44.60;99740.81;5092566;28;20412;-59
2023/08/25 03:58:13;;;;;;;11.45;5.30;;;;;;;22.67;42.33;99733.31;5092529;28;20413;-61
2023/08/25 04:00:39;;;;;;;10.57;5.72;;;;;;;23.50;40.28;99734.03;5092192;28;20131;-59
2023/08/25 04:03:06;;;;;;;13.93;5.72;;;;;;;24.10;39.08;99735.81;5081664;28;20118;-58
2023/08/25 04:05:32;;;;;;;10.40;5.70;;;;;;;24.74;37.36;99729.66;5091997;28;20051;-59
2023/08/25 04:07:58;;;;;;;9.73;4.70;;;;;;;25.37;35.06;99731.53;5092382;28;20020;-58
2023/08/25 04:10:24;;;;;;;9.20;5.25;;;;;;;25.78;34.05;99736.66;5092757;28;20097;-61
2023/08/25 04:12:50;;;;;;;14.45;4.85;;;;;;;26.14;33.16;99739.66;5092422;28;20123;-60
2023/08/25 04:15:15;;;;;;;7.57;4.70;;;;;;;26.56;32.20;99725.25;5092284;28;20105;-60
2023/08/25 04:17:41;;;;;;;12.80;4.80;;;;;;;26.97;31.31;99700.81;5093326;28;20354;-62
2023/08/25 04:20:07;;;;;;;8.82;4.60;;;;;;;27.56;30.39;99733.88;5079242;28;20031;-59
2023/08/25 04:22:32;;;;;;;12.70;4.55;;;;;;;27.99;29.83;99737.31;5095791;28;20417;-61
2023/08/25 04:24:58;;;;;;;15.02;4.68;;;;;;;28.55;29.05;99747.00;5096136;28;20032;-60
2023/08/25 04:27:23;;;;;;;9.88;4.80;;;;;;;29.15;27.87;99733.78;5096324;28;20412;-61
2023/08/25 04:29:51;;;;;;;10.55;4.65;;;;;;;29.70;27.01;99734.97;5095270;28;20035;-60
2023/08/25 04:32:17;;;;;;;13.93;4.68;;;;;;;30.09;26.41;99736.91;5095952;28;20124;-60
2023/08/25 04:34:42;;;;;;;9.60;4.40;;;;;;;30.38;25.83;99739.47;5095417;28;20107;-63
2023/08/25 04:37:08;;;;;;;9.50;4.38;;;;;;;30.99;25.27;99745.94;5095937;28;20035;-59
2023/08/25 04:39:33;;;;;;;11.98;4.40;;;;;;;31.68;24.25;99741.53;5095002;28;20032;-59
2023/08/25 04:41:59;;;;;;;11.85;5.15;;;;;;;32.41;23.23;99748.34;5095940;28;20083;-60
2023/08/25 04:44:25;;;;;;;8.45;4.63;;;;;;;33.07;22.26;99746.00;5095804;28;20024;-61
2023/08/25 04:46:50;;;;;;;8.07;4.57;;;;;;;33.75;21.52;99738.47;5095643;28;20031;-60
2023/08/25 04:49:16;;;;;;;8.50;4.28;;;;;;;34.48;20.44;99752.97;5093313;28;20024;-60
2023/08/25 04:51:42;;;;;;;11.98;4.13;;;;;;;35.14;19.66;99762.06;5095087;28;20071;-61
2023/08/25 04:54:07;;;;;;;9.40;3.97;;;;;;;35.57;19.11;99750.28;5094921;28;20105;-60
2023/08/25 04:56:33;;;;;;;8.02;3.72;;;;;;;35.73;18.48;99747.34;5095328;28;20419;-61
2023/08/25 04:58:59;;;;;;;6.03;3.60;;;;;;;35.76;17.88;99725.28;5095509;28;20036;-61
2023/08/25 05:01:24;;;;;;;7.13;3.20;;;;;;;36.22;17.57;99752.94;5095377;28;20049;-61
2023/08/25 05:03:50;;;;;;;5.70;3.10;;;;;;;36.28;17.64;99740.59;5095182;28;20042;-61
2023/08/25 05:06:15;;;;;;;5.80;3.05;;;;;;;36.66;16.95;99748.19;5095107;28;20039;-61
2023/08/25 05:08:41;;;;;;;7.57;3.63;;;;;;;36.94;16.43;99726.88;5094665;28;20466;-60
2023/08/25 05:11:08;;;;;;;8.40;3.22;;;;;;;37.39;16.07;99743.16;5094894;28;20044;-61
2023/08/25 05:13:34;;;;;;;9.43;2.95;;;;;;;37.95;15.74;99753.59;5095013;28;20048;-60
2023/08/25 05:15:59;;;;;;;5.07;2.92;;;;;;;38.41;14.82;99752.66;5094448;28;20119;-62
2023/08/25 05:18:25;;;;;;;3.50;2.35;;;;;;;38.87;14.12;99745.19;5095079;28;20116;-61
2023/08/25 05:20:50;;;;;;;6.68;2.88;;;;;;;39.51;13.92;99753.75;5094381;28;20156;-61
2023/08/25 05:23:16;;;;;;;3.40;2.67;;;;;;;39.43;13.87;99750.59;5094989;28;20319;-61
2023/08/25 05:25:41;;;;;;;5.45;2.55;;;;;;;39.34;13.60;99747.72;5094775;28;20125;-61
2023/08/25 05:28:07;;;;;;;6.75;2.63;;;;;;;39.95;13.29;99742.78;5094506;28;20456;-61
2023/08/25 05:30:32;;;;;;;11.25;2.40;;;;;;;40.60;12.85;99741.13;5094731;28;20032;-61
2023/08/25 05:32:58;;;;;;;4.25;2.20;;;;;;;41.13;12.16;99745.91;5093976;28;20507;-60
2023/08/25 05:35:23;;;;;;;5.28;2.10;;;;;;;41.63;11.73;99752.97;5094152;28;20105;-60
2023/08/25 05:37:49;;;;;;;4.53;2.00;;;;;;;42.17;11.37;99754.38;5094575;28;20484;-61
2023/08/25 05:40:16;;;;;;;3.10;2.00;;;;;;;42.62;10.97;99752.13;5094012;28;20032;-60
2023/08/25 05:42:42;;;;;;;4.00;2.28;;;;;;;42.78;10.64;99727.00;5094268;28;20032;-63
2023/08/25 05:45:08;;;;;;;6.50;2.30;;;;;;;43.36;10.53;99757.28;5094482;28;20024;-61
2023/08/25 05:47:33;;;;;;;3.53;2.63;;;;;;;43.51;10.29;99751.00;5094449;28;20097;-62
2023/08/25 05:49:59;;;;;;;3.78;2.22;;;;;;;43.60;10.28;99725.53;5094041;28;20434;-62
2023/08/25 05:52:24;;;;;;;4.65;2.15;;;;;;;43.87;9.52;99755.03;5094434;28;20027;-61
2023/08/25 05:54:50;;;;;;;6.38;2.33;;;;;;;44.01;9.78;99740.59;5094237;28;20093;-60
2023/08/25 05:57:16;;;;;;;2.20;2.00;;;;;;;43.99;9.76;99761.88;5094227;28;20032;-61
2023/08/25 05:59:41;;;;;;;3.30;2.05;;;;;;;43.87;9.57;99755.03;5093763;28;20494;-61
2023/08/25 06:02:07;;;;;;;7.95;1.90;;;;;;;44.08;9.37;99748.44;5093812;28;20042;-61
2023/08/25 06:04:32;;;;;;;2.00;1.80;;;;;;;44.49;9.19;99748.53;5094292;28;20133;-62
2023/08/25 06:06:58;;;;;;;5.22;1.70;;;;;;;45.16;8.16;99730.34;5094022;28;20020;-61
2023/08/25 06:09:23;;;;;;;1.38;1.27;;;;;;;45.77;7.70;99750.94;5093379;28;20035;-60
2023/08/25 06:11:50;;;;;;;1.95;1.20;;;;;;;45.96;7.11;99763.53;5093474;28;20040;-60
2023/08/25 06:14:15;;;;;;;2.22;1.15;;;;;;;45.92;6.67;99745.66;5093964;28;20051;-60
2023/08/25 06:16:41;;;;;;;1.48;1.17;;;;;;;46.39;6.54;99752.41;5092905;28;20016;-61
2023/08/25 06:19:07;;;;;;;1.13;1.10;;;;;;;46.28;6.58;99763.47;5092963;28;20099;-62
2023/08/25 06:21:33;;;;;;;1.40;1.30;;;;;;;45.88;7.06;99756.88;5093350;28;20126;-60
2023/08/25 06:23:59;;;;;;;1.95;1.10;;;;;;;46.28;7.20;99755.00;5093163;28;20024;-62
2023/08/25 06:26:25;;;;;;;4.68;1.58;;;;;;;46.58;6.84;99748.81;5087112;28;20056;-60
2023/08/25 06:28:52;;;;;;;6.20;1.42;;;;;;;46.91;6.45;99752.34;5092820;28;20339;-61
2023/08/25 06:31:18;;;;;;;3.10;1.33;;;;;;;47.19;6.21;99743.59;5093466;28;20035;-62
2023/08/25 06:33:45;;;;;;;1.90;1.27;;;;;;;47.57;6.34;99753.22;5092598;28;20066;-61
2023/08/25 06:36:10;;;;;;;1.58;1.08;;;;;;;48.05;6.19;99739.81;5093461;28;20032;-62
2023/08/25 06:38:36;;;;;;;1.65;0.90;;;;;;;48.45;5.47;99748.94;5093278;28;20054;-62
2023/08/25 06:41:03;;;;;;;2.28;1.20;;;;;;;48.84;5.76;99742.97;5092759;28;20031;-61
2023/08/25 06:43:29;;;;;;;1.92;1.25;;;;;;;48.87;5.42;99721.50;5093371;28;20047;-62
2023/08/25 06:45:54;;;;;;;1.60;1.50;;;;;;;49.25;5.47;99740.19;5092607;28;20024;-61
2023/08/25 06:48:20;;;;;;;2.35;1.35;;;;;;;49.67;4.94;99738.16;5093358;28;20028;-61
2023/08/25 06:50:46;;;;;;;1.42;1.30;;;;;;;50.03;5.00;99749.00;5092892;28;20032;-63
2023/08/25 06:53:11;;;;;;;1.55;1.20;;;;;;;49.95;4.75;99741.63;5092950;28;20111;-61
2023/08/25 06:55:37;;;;;;;2.28;1.20;;;;;;;50.12;4.71;99746.63;5075178;28;20092;-63
2023/08/25 06:58:02;;;;;;;1.45;1.35;;;;;;;50.30;4.62;99745.13;5093368;28;20481;-61
2023/08/25 07:00:29;;;;;;;1.88;1.40;;;;;;;50.68;4.74;99749.41;5092297;28;20043;-62
2023/08/25 07:02:54;;;;;;;2.25;1.40;;;;;;;51.01;4.57;99738.13;5092866;28;20024;-61
2023/08/25 07:05:20;;;;;;;2.30;1.20;;;;;;;51.34;4.68;99741.88;5092823;28;20066;-62
2023/08/25 07:07:46;;;;;;;1.70;1.60;;;;;;;51.49;4.66;99750.41;5092842;28;20149;-61
2023/08/25 07:10:15;;;;;;;3.00;1.65;;;;;;;51.40;4.45;99750.84;5091974;28;20064;-62
2023/08/25 07:12:40;;;;;;;1.75;1.63;;;;;;;50.89;4.62;99730.75;5092712;28;20096;-63
2023/08/25 07:15:08;;;;;;;3.47;1.60;;;;;;;50.56;4.56;99752.56;5092378;28;20419;-64
2023/08/25 07:17:34;;;;;;;2.35;1.65;;;;;;;49.97;4.66;99750.59;5092816;28;20499;-63
2023/08/25 07:19:59;;;;;;;1.65;1.52;;;;;;;49.91;4.97;99746.47;5092644;28;20097;-64
2023/08/25 07:22:25;;;;;;;2.78;1.38;;;;;;;49.64;4.85;99743.78;5092871;28;20043;-64
2023/08/25 07:24:53;;;;;;;1.95;1.63;;;;;;;50.08;4.94;99740.09;5092628;28;20024;-64
2023/08/25 07:27:21;;;;;;;2.35;1.80;;;;;;;51.06;4.06;99759.72;5092612;28;20055;-62
2023/08/25 07:29:47;;;;;;;6.22;1.90;;;;;;;50.86;4.35;99748.63;5074674;28;20107;-62
2023/08/25 07:32:13;;;;;;;2.08;1.80;;;;;;;51.22;3.93;99747.91;5092385;28;20119;-62
2023/08/25 07:34:43;;;;;;;2.05;1.73;;;;;;;51.76;4.21;99753.72;5087585;28;20020;-62
2023/08/25 07:37:09;;;;;;;2.22;1.75;;;;;;;51.94;4.20;99727.19;5091321;28;20024;-61
2023/08/25 07:39:34;;;;;;;2.30;2.10;;;;;;;52.19;3.93;99746.31;5091064;28;20081;-64
2023/08/25 07:41:59;;;;;;;3.72;1.83;;;;;;;52.01;4.09;99743.53;5091168;28;20043;-63
2023/08/25 07:44:25;;;;;;;2.25;1.92;;;;;;;51.90;3.89;99746.38;5092093;28;20093;-63
2023/08/25 07:46:51;;;;;;;3.15;2.10;;;;;;;51.01;4.03;99754.41;5091565;28;20028;-64
2023/08/25 07:49:16;;;;;;;3.28;1.83;;;;;;;49.98;4.67;99746.53;5091164;28;20408;-63
2023/08/25 07:51:41;;;;;;;2.58;1.90;;;;;;;49.55;5.07;99739.28;5092291;28;20036;-62
2023/08/25 07:54:07;;;;;;;3.03;1.80;;;;;;;49.36;4.76;99745.16;5096091;28;20042;-62
2023/08/25 07:56:33;;;;;;;3.72;2.22;;;;;;;48.34;5.38;99721.19;5095369;28;20438;-63
2023/08/25 07:58:58;;;;;;;3.05;1.48;;;;;;;47.76;5.70;99728.84;5096251;28;20039;-63
2023/08/25 08:01:24;;;;;;;2.20;1.60;;;;;;;45.07;7.31;99738.16;5088560;28;20040;-62
2023/08/25 08:03:50;;;;;;;4.68;1.67;;;;;;;43.79;8.32;99733.44;5094696;28;20024;-63
2023/08/25 08:06:16;;;;;;;6.43;1.90;;;;;;;43.30;7.90;99732.16;5095501;28;20386;-58
2023/08/25 08:08:43;;;;;;;2.58;1.60;;;;;;;41.37;9.26;99722.09;5091963;28;20024;-59
2023/08/25 08:11:09;;;;;;;1.58;1.38;;;;;;;38.58;10.81;99737.22;5089072;28;20336;-60
2023/08/25 08:13:35;;;;;;;2.70;1.55;;;;;;;36.30;12.38;99738.34;5081587;28;20453;-60
2023/08/25 08:16:01;;;;;;;3.75;1.40;;;;;;;34.01;14.57;99728.16;5090420;28;20036;-58
2023/08/25 08:18:26;;;;;;;4.50;1.50;;;;;;;31.91;16.16;99732.03;5095141;28;20107;-59
2023/08/25 08:20:54;;;;;;;8.68;3.25;;;;;;;30.05;17.62;99724.72;5095608;28;20032;-60
2023/08/25 08:23:20;;;;;;;9.57;3.05;;;;;;;28.79;18.97;99737.59;5095052;28;20028;-58
2023/08/25 08:25:46;;;;;;;4.43;1.40;;;;;;;27.85;19.95;99753.25;5095110;28;20105;-60
2023/08/25 08:28:12;;;;;;;4.30;1.20;;;;;;;26.93;21.55;99755.38;5095666;28;20389;-59
2023/08/25 08:30:37;;;;;;;8.15;1.58;;;;;;;26.26;21.60;99754.31;5095421;28;20034;-54
2023/08/25 08:33:04;;;;;;;6.65;1.20;;;;;;;25.80;22.95;99757.31;5095031;28;20040;-58
2023/08/25 08:35:29;;;;;;;3.30;1.25;;;;;;;25.47;22.92;99752.16;5094697;28;20149;-59
2023/08/25 08:37:55;;;;;;;4.85;3.47;;;;;;;25.10;23.12;99749.25;5095176;28;20109;-58
2023/08/25 08:40:21;;;;;;;3.08;2.55;;;;;;;24.72;22.99;99757.25;5094857;28;20123;-57
2023/08/25 08:42:49;;;;;;;2.38;1.20;;;;;;;24.47;22.72;99763.47;5095027;28;20028;-59
2023/08/25 08:45:17;;;;;;;5.53;1.27;;;;;;;23.97;23.87;99733.94;5094345;28;20395;-58
2023/08/25 08:47:43;;;;;;;5.57;1.50;;;;;;;23.91;24.33;99753.94;5082409;28;20032;-58
2023/08/25 08:50:09;;;;;;;7.40;1.30;;;;;;;23.75;24.88;99760.72;5083571;28;20059;-58
2023/08/25 08:52:35;;;;;;;3.33;1.17;;;;;;;23.63;25.21;99764.09;5092625;28;20035;-60
2023/08/25 08:55:05;;;;;;;3.90;1.40;;;;;;;23.73;25.67;99765.53;5082623;28;20036;-56
2023/08/25 08:57:30;;;;;;;2.47;1.35;;;;;;;23.78;25.79;99765.75;5083944;28;20359;-56
2023/08/25 08:59:59;;;;;;;5.20;1.58;;;;;;;23.82;25.22;99763.44;5078312;28;20036;-64
2023/08/25 09:02:28;;;;;;;6.28;1.40;;;;;;;23.99;24.71;99775.56;5078957;28;20024;-59
2023/08/25 09:05:00;;;;;;;3.03;1.60;;;;;;;24.12;25.83;99754.78;5092993;28;20339;-63
2023/08/25 09:07:32;;;;;;;2.97;1.73;;;;;;;24.41;25.54;99775.28;5094754;28;20028;-65
2023/08/25 09:09:58;;;;;;;10.05;1.80;;;;;;;24.46;25.30;99770.00;5076839;28;20026;-62
2023/08/25 09:12:23;;;;;;;2.72;1.50;;;;;;;24.55;25.58;99769.75;5094316;28;20051;-64
2023/08/25 09:14:49;;;;;;;4.88;1.77;;;;;;;24.52;25.35;99760.91;5094002;28;20032;-62
2023/08/25 09:17:15;;;;;;;6.30;2.28;;;;;;;24.37;26.08;99763.94;5094306;28;20107;-63
2023/08/25 09:19:41;;;;;;;6.22;1.52;;;;;;;24.19;26.56;99767.38;5093741;28;20028;-63
2023/08/25 09:22:13;;;;;;;3.88;1.95;;;;;;;23.99;26.39;99761.91;5093817;28;20382;-63
2023/08/25 09:24:41;;;;;;;12.25;2.13;;;;;;;23.68;26.96;99759.88;5094611;28;20042;-63
2023/08/25 09:27:20;;;;;;;2.05;1.83;;;;;;;23.61;27.13;99763.44;5094737;28;20035;-63
2023/08/25 09:29:46;;;;;;;6.43;2.30;;;;;;;23.14;28.30;99748.91;5093166;28;20114;-64
2023/08/25 09:32:14;;;;;;;6.05;2.15;;;;;;;22.99;28.20;99762.75;5094313;28;20153;-65
2023/08/25 09:34:41;;;;;;;6.75;2.15;;;;;;;22.91;28.15;99766.53;5093495;28;20530;-63
2023/08/25 09:37:07;;;;;;;3.78;1.83;;;;;;;23.08;28.36;99756.88;5094277;28;20059;-65
2023/08/25 09:39:44;;;;;;;3.45;1.60;;;;;;;23.37;27.09;99763.03;5093944;28;20070;-63
2023/08/25 09:42:10;;;;;;;3.90;1.77;;;;;;;23.40;27.47;99758.22;5094124;28;20035;-64
2023/08/25 09:44:37;;;;;;;3.90;1.60;;;;;;;23.51;27.75;99755.69;5093915;28;20111;-62
2023/08/25 09:47:06;;;;;;;4.30;1.65;;;;;;;23.64;27.58;99754.84;5093707;28;20141;-64
2023/08/25 09:49:39;;;;;;;5.95;1.70;;;;;;;23.73;27.46;99757.34;5093099;28;20043;-64
2023/08/25 09:52:12;;;;;;;2.15;1.30;;;;;;;23.56;27.34;99749.56;5093572;28;20492;-64
2023/08/25 09:54:38;;;;;;;4.35;1.67;;;;;;;23.35;27.60;99750.66;5093763;28;20115;-63
2023/08/25 09:57:04;;;;;;;3.13;1.58;;;;;;;23.26;26.72;99744.53;5093801;28;20094;-66
2023/08/25 09:59:30;;;;;;;1.88;1.40;;;;;;;23.41;26.96;99748.97;5093063;28;20024;-64
2023/08/25 10:01:57;;;;;;;2.47;1.35;;;;;;;23.41;25.05;99717.00;5093341;28;20339;-66
2023/08/25 10:04:23;;;;;;;2.63;1.33;;;;;;;23.59;25.75;99738.22;5092758;28;20507;-65
2023/08/25 10:06:49;;;;;;;6.18;1.70;;;;;;;23.48;25.81;99736.97;5093436;28;20028;-65
2023/08/25 10:09:16;;;;;;;3.88;1.75;;;;;;;23.36;26.29;99742.22;5093264;28;20119;-64
2023/08/25 10:11:45;;;;;;;5.00;1.50;;;;;;;23.28;26.81;99736.97;5092529;28;20123;-64
2023/08/25 10:14:13;;;;;;;4.10;1.48;;;;;;;23.19;26.04;99746.41;5091132;28;20036;-65
2023/08/25 10:16:40;;;;;;;4.20;1.60;;;;;;;23.22;26.47;99744.09;5089520;28;20039;-66
2023/08/25 10:19:12;;;;;;;1.88;1.38;;;;;;;23.25;25.89;99745.59;5080392;28;20028;-68
2023/08/25 10:21:38;;;;;;;6.30;1.70;;;;;;;23.31;26.00;99744.75;5091129;28;20028;-64
2023/08/25 10:24:06;;;;;;;4.22;1.48;;;;;;;23.11;25.86;99719.28;5077703;28;20131;-66
2023/08/25 10:26:32;;;;;;;5.72;1.58;;;;;;;23.30;25.87;99747.72;5091733;28;20024;-65
2023/08/25 10:28:58;;;;;;;4.10;1.50;;;;;;;23.15;26.34;99750.59;5090923;28;20085;-65
2023/08/25 10:31:25;;;;;;;5.93;1.60;;;;;;;22.92;26.55;99735.47;5083566;28;20042;-62
2023/08/25 10:33:52;;;;;;;4.20;1.70;;;;;;;22.71;27.11;99744.63;5079425;28;20032;-64
2023/08/25 10:36:19;;;;;;;4.72;1.83;;;;;;;22.73;27.20;99748.84;5087922;28;20116;-64
2023/08/25 10:39:06;;;;;;;3.78;1.52;;;;;;;22.92;26.99;99746.38;5092471;28;20024;-71
2023/08/25 10:41:39;;;;;;;5.40;1.80;;;;;;;22.72;27.48;99757.22;5091190;28;20040;-70
2023/08/25 10:44:08;;;;;;;6.75;1.70;;;;;;;22.53;27.81;99747.94;5090920;28;20429;-69
2023/08/25 10:46:34;;;;;;;5.57;2.10;;;;;;;22.32;28.87;99753.31;5091351;28;20032;-72
2023/08/25 10:49:06;;;;;;;2.95;1.60;;;;;;;22.13;28.54;99754.03;5091271;28;20093;-69
2023/08/25 10:51:33;;;;;;;3.53;1.65;;;;;;;21.93;28.88;99735.69;5090176;28;20040;-71
2023/08/25 10:53:59;;;;;;;2.58;1.52;;;;;;;21.98;28.88;99740.53;5091331;28;20039;-70
2023/08/25 10:56:26;;;;;;;5.25;1.88;;;;;;;22.11;28.71;99746.06;5091428;28;20024;-72
2023/08/25 10:59:05;;;;;;;4.03;1.83;;;;;;;22.39;28.80;99739.66;5092257;28;20043;-67
2023/08/25 11:01:57;;;;;;;5.90;2.10;;;;;;;22.32;28.55;99706.09;5092669;28;20039;-70
2023/08/25 11:04:25;;;;;;;4.97;1.88;;;;;;;22.27;29.38;99746.75;5091989;28;20336;-69
2023/08/25 11:06:53;;;;;;;4.15;1.77;;;;;;;22.26;28.93;99734.19;5092077;28;20047;-70
2023/08/25 11:09:26;;;;;;;4.13;1.63;;;;;;;22.40;28.07;99738.63;5092226;28;20399;-68
2023/08/25 11:12:13;;;;;;;4.68;2.33;;;;;;;22.48;29.02;99738.50;5091240;28;20130;-69
2023/08/25 11:14:42;;;;;;;5.30;2.00;;;;;;;22.68;28.04;99732.25;5090079;28;20119;-69
2023/08/25 11:17:09;;;;;;;6.30;2.10;;;;;;;22.89;27.23;99725.78;5073808;28;20039;-70
2023/08/25 11:19:38;;;;;;;7.93;2.20;;;;;;;23.00;26.80;99718.88;5088933;28;20089;-69
2023/08/25 11:22:05;;;;;;;4.72;1.90;;;;;;;23.11;26.71;99694.72;5091650;28;20024;-68
2023/08/25 11:24:32;;;;;;;5.75;1.83;;;;;;;23.51;26.79;99730.25;5091780;28;20447;-68
2023/08/25 11:27:09;;;;;;;11.98;2.53;;;;;;;23.86;26.00;99724.50;5093278;28;20447;-69
2023/08/25 11:29:35;;;;;;;4.10;1.98;;;;;;;23.93;25.45;99724.50;5058440;28;20071;-70